sensor_id;sensor_type;location;lat;lon;timestamp;temperature;humidity
75685;HTU21D;64298;46.050;38.164;2023-02-12T00:01:27;-0.41;69.67
75685;HTU21D;64298;46.050;38.164;2023-02-12T00:04:11;-0.40;69.90
75685;HTU21D;64298;46.050;38.164;2023-02-12T00:06:37;-0.39;70.03
75685;HTU21D;64298;46.050;38.164;2023-02-12T00:09:04;-0.38;70.07
75685;HTU21D;64298;46.050;38.164;2023-02-12T00:11:30;-0.36;70.08
75685;HTU21D;64298;46.050;38.164;2023-02-12T00:13:57;-0.31;70.10
75685;HTU21D;64298;46.050;38.164;2023-02-12T00:16:25;-0.31;70.20
75685;HTU21D;64298;46.050;38.164;2023-02-12T00:18:54;-0.27;70.28
75685;HTU21D;64298;46.050;38.164;2023-02-12T00:21:38;-0.24;70.33
75685;HTU21D;64298;46.050;38.164;2023-02-12T00:24:04;-0.21;70.44
75685;HTU21D;64298;46.050;38.164;2023-02-12T00:26:30;-0.15;70.44
75685;HTU21D;64298;46.050;38.164;2023-02-12T00:28:56;-0.13;70.52
75685;HTU21D;64298;46.050;38.164;2023-02-12T00:31:24;-0.09;70.51
75685;HTU21D;64298;46.050;38.164;2023-02-12T00:33:50;-0.06;70.49
75685;HTU21D;64298;46.050;38.164;2023-02-12T00:36:19;-0.01;70.45
75685;HTU21D;64298;46.050;38.164;2023-02-12T00:38:46;0.01;70.43
75685;HTU21D;64298;46.050;38.164;2023-02-12T00:41:12;0.04;70.51
75685;HTU21D;64298;46.050;38.164;2023-02-12T00:43:38;0.05;70.68
75685;HTU21D;64298;46.050;38.164;2023-02-12T00:46:05;0.07;70.68
75685;HTU21D;64298;46.050;38.164;2023-02-12T00:48:32;0.10;70.86
75685;HTU21D;64298;46.050;38.164;2023-02-12T00:50:58;0.15;70.79
75685;HTU21D;64298;46.050;38.164;2023-02-12T00:53:27;0.16;70.96
75685;HTU21D;64298;46.050;38.164;2023-02-12T00:55:54;0.20;71.00
75685;HTU21D;64298;46.050;38.164;2023-02-12T00:58:38;0.23;71.04
75685;HTU21D;64298;46.050;38.164;2023-02-12T01:01:05;0.24;71.10
75685;HTU21D;64298;46.050;38.164;2023-02-12T01:03:31;0.25;71.13
75685;HTU21D;64298;46.050;38.164;2023-02-12T01:05:58;0.28;71.14
75685;HTU21D;64298;46.050;38.164;2023-02-12T01:08:24;0.29;71.16
75685;HTU21D;64298;46.050;38.164;2023-02-12T01:10:58;0.32;71.17
75685;HTU21D;64298;46.050;38.164;2023-02-12T01:13:25;0.31;71.21
75685;HTU21D;64298;46.050;38.164;2023-02-12T01:16:14;0.33;71.22
75685;HTU21D;64298;46.050;38.164;2023-02-12T01:18:40;0.35;71.23
75685;HTU21D;64298;46.050;38.164;2023-02-12T01:21:14;0.35;71.35
75685;HTU21D;64298;46.050;38.164;2023-02-12T01:23:41;0.38;71.39
75685;HTU21D;64298;46.050;38.164;2023-02-12T01:26:08;0.38;71.40
75685;HTU21D;64298;46.050;38.164;2023-02-12T01:28:36;0.39;71.49
75685;HTU21D;64298;46.050;38.164;2023-02-12T01:31:07;0.40;71.48
75685;HTU21D;64298;46.050;38.164;2023-02-12T01:33:33;0.42;71.50
75685;HTU21D;64298;46.050;38.164;2023-02-12T01:35:59;0.43;71.66
75685;HTU21D;64298;46.050;38.164;2023-02-12T01:38:25;0.45;71.71
75685;HTU21D;64298;46.050;38.164;2023-02-12T01:40:51;0.44;71.82
75685;HTU21D;64298;46.050;38.164;2023-02-12T01:43:17;0.45;71.89
75685;HTU21D;64298;46.050;38.164;2023-02-12T01:45:50;0.45;71.85
75685;HTU21D;64298;46.050;38.164;2023-02-12T01:48:36;0.46;71.96
75685;HTU21D;64298;46.050;38.164;2023-02-12T01:51:04;0.40;71.95
75685;HTU21D;64298;46.050;38.164;2023-02-12T01:53:41;0.40;72.06
75685;HTU21D;64298;46.050;38.164;2023-02-12T01:56:08;0.39;72.03
75685;HTU21D;64298;46.050;38.164;2023-02-12T01:58:37;0.40;72.08
75685;HTU21D;64298;46.050;38.164;2023-02-12T02:01:07;0.43;71.99
75685;HTU21D;64298;46.050;38.164;2023-02-12T02:03:37;0.42;72.00
75685;HTU21D;64298;46.050;38.164;2023-02-12T02:06:16;0.43;71.99
75685;HTU21D;64298;46.050;38.164;2023-02-12T02:08:44;0.42;72.01
75685;HTU21D;64298;46.050;38.164;2023-02-12T02:11:10;0.43;71.97
75685;HTU21D;64298;46.050;38.164;2023-02-12T02:13:58;0.39;71.97
75685;HTU21D;64298;46.050;38.164;2023-02-12T02:16:49;0.38;71.97
75685;HTU21D;64298;46.050;38.164;2023-02-12T02:30:44;0.28;72.25
75685;HTU21D;64298;46.050;38.164;2023-02-12T02:36:00;0.27;72.29
75685;HTU21D;64298;46.050;38.164;2023-02-12T02:38:48;0.27;72.27
75685;HTU21D;64298;46.050;38.164;2023-02-12T02:41:19;0.25;72.31
75685;HTU21D;64298;46.050;38.164;2023-02-12T02:43:49;0.28;72.32
75685;HTU21D;64298;46.050;38.164;2023-02-12T02:49:24;0.29;72.23
75685;HTU21D;64298;46.050;38.164;2023-02-12T02:52:02;0.32;72.22
75685;HTU21D;64298;46.050;38.164;2023-02-12T02:54:34;0.33;72.19
75685;HTU21D;64298;46.050;38.164;2023-02-12T02:57:18;0.34;72.16
75685;HTU21D;64298;46.050;38.164;2023-02-12T02:59:51;0.37;72.22
75685;HTU21D;64298;46.050;38.164;2023-02-12T03:02:25;0.36;72.25
75685;HTU21D;64298;46.050;38.164;2023-02-12T03:04:56;0.36;72.30
75685;HTU21D;64298;46.050;38.164;2023-02-12T03:07:41;0.36;72.29
75685;HTU21D;64298;46.050;38.164;2023-02-12T03:10:14;0.37;72.37
75685;HTU21D;64298;46.050;38.164;2023-02-12T03:15:32;0.37;72.35
75685;HTU21D;64298;46.050;38.164;2023-02-12T03:18:02;0.38;72.31
75685;HTU21D;64298;46.050;38.164;2023-02-12T03:20:38;0.37;72.34
75685;HTU21D;64298;46.050;38.164;2023-02-12T03:23:11;0.35;72.41
75685;HTU21D;64298;46.050;38.164;2023-02-12T03:28:29;0.35;72.40
75685;HTU21D;64298;46.050;38.164;2023-02-12T03:37:28;0.37;72.32
75685;HTU21D;64298;46.050;38.164;2023-02-12T03:45:44;0.38;72.41
75685;HTU21D;64298;46.050;38.164;2023-02-12T03:53:41;0.40;72.46
75685;HTU21D;64298;46.050;38.164;2023-02-12T03:56:14;0.40;72.54
75685;HTU21D;64298;46.050;38.164;2023-02-12T03:58:43;0.43;72.50
75685;HTU21D;64298;46.050;38.164;2023-02-12T04:01:10;0.44;72.44
75685;HTU21D;64298;46.050;38.164;2023-02-12T04:03:36;0.45;72.44
75685;HTU21D;64298;46.050;38.164;2023-02-12T04:06:03;0.46;72.47
75685;HTU21D;64298;46.050;38.164;2023-02-12T04:08:30;0.46;72.53
75685;HTU21D;64298;46.050;38.164;2023-02-12T04:11:20;0.46;72.56
75685;HTU21D;64298;46.050;38.164;2023-02-12T04:16:33;0.49;72.61
75685;HTU21D;64298;46.050;38.164;2023-02-12T04:19:00;0.51;72.61
75685;HTU21D;64298;46.050;38.164;2023-02-12T04:21:52;0.49;72.59
75685;HTU21D;64298;46.050;38.164;2023-02-12T04:25:08;0.48;72.73
75685;HTU21D;64298;46.050;38.164;2023-02-12T04:28:19;0.49;72.81
75685;HTU21D;64298;46.050;38.164;2023-02-12T04:31:00;0.49;72.77
75685;HTU21D;64298;46.050;38.164;2023-02-12T04:33:41;0.51;72.88
75685;HTU21D;64298;46.050;38.164;2023-02-12T04:36:16;0.51;73.00
75685;HTU21D;64298;46.050;38.164;2023-02-12T04:38:52;0.52;73.03
75685;HTU21D;64298;46.050;38.164;2023-02-12T04:41:20;0.57;73.05
75685;HTU21D;64298;46.050;38.164;2023-02-12T04:43:46;0.58;72.99
75685;HTU21D;64298;46.050;38.164;2023-02-12T04:46:12;0.62;73.03
75685;HTU21D;64298;46.050;38.164;2023-02-12T04:48:53;0.64;73.10
75685;HTU21D;64298;46.050;38.164;2023-02-12T04:51:19;0.68;73.03
75685;HTU21D;64298;46.050;38.164;2023-02-12T04:53:46;0.69;73.04
75685;HTU21D;64298;46.050;38.164;2023-02-12T04:56:12;0.73;73.04
75685;HTU21D;64298;46.050;38.164;2023-02-12T04:58:39;0.75;73.08
75685;HTU21D;64298;46.050;38.164;2023-02-12T05:01:06;0.77;73.07
75685;HTU21D;64298;46.050;38.164;2023-02-12T05:03:32;0.80;73.11
75685;HTU21D;64298;46.050;38.164;2023-02-12T05:06:06;0.83;73.12
75685;HTU21D;64298;46.050;38.164;2023-02-12T05:08:32;0.86;73.10
75685;HTU21D;64298;46.050;38.164;2023-02-12T05:11:08;0.84;73.15
75685;HTU21D;64298;46.050;38.164;2023-02-12T05:13:35;0.86;73.24
75685;HTU21D;64298;46.050;38.164;2023-02-12T05:16:07;0.88;73.28
75685;HTU21D;64298;46.050;38.164;2023-02-12T05:18:35;0.91;73.36
75685;HTU21D;64298;46.050;38.164;2023-02-12T05:21:02;0.94;73.31
75685;HTU21D;64298;46.050;38.164;2023-02-12T05:23:33;0.97;73.26
75685;HTU21D;64298;46.050;38.164;2023-02-12T05:26:05;1.02;73.21
75685;HTU21D;64298;46.050;38.164;2023-02-12T05:28:50;1.06;73.18
75685;HTU21D;64298;46.050;38.164;2023-02-12T05:31:18;1.08;73.24
75685;HTU21D;64298;46.050;38.164;2023-02-12T05:33:45;1.13;73.33
75685;HTU21D;64298;46.050;38.164;2023-02-12T05:36:20;1.16;73.42
75685;HTU21D;64298;46.050;38.164;2023-02-12T05:38:47;1.21;73.38
75685;HTU21D;64298;46.050;38.164;2023-02-12T05:41:16;1.23;73.32
75685;HTU21D;64298;46.050;38.164;2023-02-12T05:43:43;1.26;73.27
75685;HTU21D;64298;46.050;38.164;2023-02-12T05:46:09;1.29;73.25
75685;HTU21D;64298;46.050;38.164;2023-02-12T05:48:36;1.33;73.30
75685;HTU21D;64298;46.050;38.164;2023-02-12T05:53:37;1.42;73.25
75685;HTU21D;64298;46.050;38.164;2023-02-12T05:58:36;1.51;73.08
75685;HTU21D;64298;46.050;38.164;2023-02-12T06:01:07;1.53;73.01
75685;HTU21D;64298;46.050;38.164;2023-02-12T06:03:33;1.56;72.99
75685;HTU21D;64298;46.050;38.164;2023-02-12T06:05:59;1.60;72.94
75685;HTU21D;64298;46.050;38.164;2023-02-12T06:08:25;1.64;72.86
75685;HTU21D;64298;46.050;38.164;2023-02-12T06:10:50;1.67;72.82
75685;HTU21D;64298;46.050;38.164;2023-02-12T06:13:16;1.69;72.77
75685;HTU21D;64298;46.050;38.164;2023-02-12T06:15:42;1.70;72.82
75685;HTU21D;64298;46.050;38.164;2023-02-12T06:18:08;1.73;72.80
75685;HTU21D;64298;46.050;38.164;2023-02-12T06:20:34;1.76;72.80
75685;HTU21D;64298;46.050;38.164;2023-02-12T06:23:03;1.77;72.81
75685;HTU21D;64298;46.050;38.164;2023-02-12T06:25:28;1.79;72.77
75685;HTU21D;64298;46.050;38.164;2023-02-12T06:27:54;1.83;72.70
75685;HTU21D;64298;46.050;38.164;2023-02-12T06:30:20;1.86;72.66
75685;HTU21D;64298;46.050;38.164;2023-02-12T06:32:49;1.90;72.61
75685;HTU21D;64298;46.050;38.164;2023-02-12T06:35:15;1.92;72.58
75685;HTU21D;64298;46.050;38.164;2023-02-12T06:37:41;1.93;72.65
75685;HTU21D;64298;46.050;38.164;2023-02-12T06:40:07;1.97;72.63
75685;HTU21D;64298;46.050;38.164;2023-02-12T06:42:33;2.00;72.61
75685;HTU21D;64298;46.050;38.164;2023-02-12T06:44:59;2.05;72.58
75685;HTU21D;64298;46.050;38.164;2023-02-12T06:47:26;2.09;72.53
75685;HTU21D;64298;46.050;38.164;2023-02-12T06:49:52;2.12;72.45
75685;HTU21D;64298;46.050;38.164;2023-02-12T06:52:18;2.20;72.32
75685;HTU21D;64298;46.050;38.164;2023-02-12T06:54:45;2.21;72.27
75685;HTU21D;64298;46.050;38.164;2023-02-12T06:57:11;2.25;72.20
75685;HTU21D;64298;46.050;38.164;2023-02-12T06:59:37;2.29;72.14
75685;HTU21D;64298;46.050;38.164;2023-02-12T07:02:03;2.32;72.06
75685;HTU21D;64298;46.050;38.164;2023-02-12T07:04:30;2.36;72.01
75685;HTU21D;64298;46.050;38.164;2023-02-12T07:06:55;2.39;71.94
75685;HTU21D;64298;46.050;38.164;2023-02-12T07:09:21;2.44;71.89
75685;HTU21D;64298;46.050;38.164;2023-02-12T07:11:47;2.50;71.80
75685;HTU21D;64298;46.050;38.164;2023-02-12T07:14:14;2.56;71.69
75685;HTU21D;64298;46.050;38.164;2023-02-12T07:16:41;2.62;71.51
75685;HTU21D;64298;46.050;38.164;2023-02-12T07:19:06;2.68;71.37
75685;HTU21D;64298;46.050;38.164;2023-02-12T07:21:51;2.76;71.20
75685;HTU21D;64298;46.050;38.164;2023-02-12T07:24:17;2.79;71.13
75685;HTU21D;64298;46.050;38.164;2023-02-12T07:26:43;2.82;70.98
75685;HTU21D;64298;46.050;38.164;2023-02-12T07:29:09;2.87;70.87
75685;HTU21D;64298;46.050;38.164;2023-02-12T07:31:35;2.94;70.80
75685;HTU21D;64298;46.050;38.164;2023-02-12T07:34:01;2.98;70.50
75685;HTU21D;64298;46.050;38.164;2023-02-12T07:36:29;3.01;70.16
75685;HTU21D;64298;46.050;38.164;2023-02-12T07:38:56;3.05;69.82
75685;HTU21D;64298;46.050;38.164;2023-02-12T07:41:28;3.08;69.65
75685;HTU21D;64298;46.050;38.164;2023-02-12T07:44:06;3.12;69.11
75685;HTU21D;64298;46.050;38.164;2023-02-12T07:46:52;3.16;68.58
75685;HTU21D;64298;46.050;38.164;2023-02-12T07:49:20;3.24;68.36
75685;HTU21D;64298;46.050;38.164;2023-02-12T07:51:46;3.26;67.60
75685;HTU21D;64298;46.050;38.164;2023-02-12T07:54:13;3.23;67.16
75685;HTU21D;64298;46.050;38.164;2023-02-12T07:56:41;3.27;67.36
75685;HTU21D;64298;46.050;38.164;2023-02-12T07:59:09;3.30;67.05
75685;HTU21D;64298;46.050;38.164;2023-02-12T08:01:38;3.29;66.90
75685;HTU21D;64298;46.050;38.164;2023-02-12T08:04:24;3.33;66.79
75685;HTU21D;64298;46.050;38.164;2023-02-12T08:06:52;3.35;66.70
75685;HTU21D;64298;46.050;38.164;2023-02-12T08:09:24;3.40;66.31
75685;HTU21D;64298;46.050;38.164;2023-02-12T08:11:51;3.41;66.20
75685;HTU21D;64298;46.050;38.164;2023-02-12T08:14:19;3.43;65.64
75685;HTU21D;64298;46.050;38.164;2023-02-12T08:16:46;3.43;65.48
75685;HTU21D;64298;46.050;38.164;2023-02-12T08:19:13;3.43;65.46
75685;HTU21D;64298;46.050;38.164;2023-02-12T08:21:57;3.42;65.46
75685;HTU21D;64298;46.050;38.164;2023-02-12T08:24:24;3.43;65.30
75685;HTU21D;64298;46.050;38.164;2023-02-12T08:26:50;3.42;65.02
75685;HTU21D;64298;46.050;38.164;2023-02-12T08:29:20;3.42;65.14
75685;HTU21D;64298;46.050;38.164;2023-02-12T08:31:48;3.42;65.02
75685;HTU21D;64298;46.050;38.164;2023-02-12T08:34:25;3.41;65.13
75685;HTU21D;64298;46.050;38.164;2023-02-12T08:37:09;3.39;64.95
75685;HTU21D;64298;46.050;38.164;2023-02-12T08:39:35;3.41;64.77
75685;HTU21D;64298;46.050;38.164;2023-02-12T08:42:01;3.43;64.40
75685;HTU21D;64298;46.050;38.164;2023-02-12T08:44:27;3.45;64.20
75685;HTU21D;64298;46.050;38.164;2023-02-12T08:46:53;3.45;64.01
75685;HTU21D;64298;46.050;38.164;2023-02-12T08:49:24;3.45;63.98
75685;HTU21D;64298;46.050;38.164;2023-02-12T08:51:53;3.48;63.82
75685;HTU21D;64298;46.050;38.164;2023-02-12T08:54:25;3.52;63.50
75685;HTU21D;64298;46.050;38.164;2023-02-12T08:56:57;3.56;63.73
75685;HTU21D;64298;46.050;38.164;2023-02-12T08:59:23;3.63;64.08
75685;HTU21D;64298;46.050;38.164;2023-02-12T09:01:50;3.67;63.65
75685;HTU21D;64298;46.050;38.164;2023-02-12T09:04:20;3.67;63.15
75685;HTU21D;64298;46.050;38.164;2023-02-12T09:06:46;3.70;63.45
75685;HTU21D;64298;46.050;38.164;2023-02-12T09:09:13;3.76;63.18
75685;HTU21D;64298;46.050;38.164;2023-02-12T09:11:40;3.79;62.95
75685;HTU21D;64298;46.050;38.164;2023-02-12T09:14:09;3.88;63.17
75685;HTU21D;64298;46.050;38.164;2023-02-12T09:16:36;3.93;63.19
75685;HTU21D;64298;46.050;38.164;2023-02-12T09:19:04;4.04;62.65
75685;HTU21D;64298;46.050;38.164;2023-02-12T09:21:30;4.09;62.40
75685;HTU21D;64298;46.050;38.164;2023-02-12T09:23:56;4.13;62.13
75685;HTU21D;64298;46.050;38.164;2023-02-12T09:26:23;4.21;61.91
75685;HTU21D;64298;46.050;38.164;2023-02-12T09:28:53;4.27;61.48
75685;HTU21D;64298;46.050;38.164;2023-02-12T09:31:24;4.44;61.61
75685;HTU21D;64298;46.050;38.164;2023-02-12T09:33:52;4.63;60.75
75685;HTU21D;64298;46.050;38.164;2023-02-12T09:36:19;4.74;59.99
75685;HTU21D;64298;46.050;38.164;2023-02-12T09:39:04;4.83;59.94
75685;HTU21D;64298;46.050;38.164;2023-02-12T09:44:43;5.08;58.70
75685;HTU21D;64298;46.050;38.164;2023-02-12T09:47:25;5.07;57.80
75685;HTU21D;64298;46.050;38.164;2023-02-12T09:49:58;5.01;57.34
75685;HTU21D;64298;46.050;38.164;2023-02-12T09:52:27;4.94;57.33
75685;HTU21D;64298;46.050;38.164;2023-02-12T09:54:53;4.88;57.32
75685;HTU21D;64298;46.050;38.164;2023-02-12T09:57:29;4.81;56.68
75685;HTU21D;64298;46.050;38.164;2023-02-12T10:00:05;4.76;57.16
75685;HTU21D;64298;46.050;38.164;2023-02-12T10:02:33;4.72;57.00
75685;HTU21D;64298;46.050;38.164;2023-02-12T10:05:00;4.71;56.74
75685;HTU21D;64298;46.050;38.164;2023-02-12T10:16:13;4.61;58.75
75685;HTU21D;64298;46.050;38.164;2023-02-12T10:21:51;4.54;59.79
75685;HTU21D;64298;46.050;38.164;2023-02-12T10:27:59;4.48;60.24
75685;HTU21D;64298;46.050;38.164;2023-02-12T10:33:24;4.41;60.93
75685;HTU21D;64298;46.050;38.164;2023-02-12T10:38:44;4.41;60.86
75685;HTU21D;64298;46.050;38.164;2023-02-12T10:41:14;4.42;60.92
75685;HTU21D;64298;46.050;38.164;2023-02-12T10:43:41;4.42;60.89
75685;HTU21D;64298;46.050;38.164;2023-02-12T10:46:13;4.42;60.85
75685;HTU21D;64298;46.050;38.164;2023-02-12T10:48:43;4.42;60.93
75685;HTU21D;64298;46.050;38.164;2023-02-12T10:54:37;4.36;62.02
75685;HTU21D;64298;46.050;38.164;2023-02-12T10:57:19;4.34;62.29
75685;HTU21D;64298;46.050;38.164;2023-02-12T10:59:47;4.26;62.57
75685;HTU21D;64298;46.050;38.164;2023-02-12T11:02:39;4.20;62.92
75685;HTU21D;64298;46.050;38.164;2023-02-12T11:05:43;4.15;63.24
75685;HTU21D;64298;46.050;38.164;2023-02-12T11:08:32;4.06;63.75
75685;HTU21D;64298;46.050;38.164;2023-02-12T11:11:21;4.04;64.18
75685;HTU21D;64298;46.050;38.164;2023-02-12T11:14:05;3.99;64.66
75685;HTU21D;64298;46.050;38.164;2023-02-12T11:16:34;3.95;64.90
75685;HTU21D;64298;46.050;38.164;2023-02-12T11:19:06;3.93;65.31
75685;HTU21D;64298;46.050;38.164;2023-02-12T11:21:33;3.93;65.46
75685;HTU21D;64298;46.050;38.164;2023-02-12T11:26:47;3.94;65.82
75685;HTU21D;64298;46.050;38.164;2023-02-12T11:29:23;3.97;65.88
75685;HTU21D;64298;46.050;38.164;2023-02-12T11:32:01;3.97;65.99
75685;HTU21D;64298;46.050;38.164;2023-02-12T11:34:27;3.95;66.09
75685;HTU21D;64298;46.050;38.164;2023-02-12T11:36:55;3.92;66.27
75685;HTU21D;64298;46.050;38.164;2023-02-12T11:39:25;3.90;66.59
75685;HTU21D;64298;46.050;38.164;2023-02-12T11:41:54;3.86;66.88
75685;HTU21D;64298;46.050;38.164;2023-02-12T11:44:34;3.84;66.96
75685;HTU21D;64298;46.050;38.164;2023-02-12T11:47:09;3.82;67.28
75685;HTU21D;64298;46.050;38.164;2023-02-12T11:49:42;3.82;67.51
75685;HTU21D;64298;46.050;38.164;2023-02-12T11:52:25;3.79;68.30
75685;HTU21D;64298;46.050;38.164;2023-02-12T11:55:05;3.70;68.93
75685;HTU21D;64298;46.050;38.164;2023-02-12T11:57:52;3.55;70.24
75685;HTU21D;64298;46.050;38.164;2023-02-12T12:00:35;3.40;71.67
75685;HTU21D;64298;46.050;38.164;2023-02-12T12:03:25;3.23;72.74
75685;HTU21D;64298;46.050;38.164;2023-02-12T12:06:04;3.11;73.54
75685;HTU21D;64298;46.050;38.164;2023-02-12T12:08:39;3.00;74.44
75685;HTU21D;64298;46.050;38.164;2023-02-12T12:11:20;2.93;75.05
75685;HTU21D;64298;46.050;38.164;2023-02-12T12:13:58;2.85;75.51
75685;HTU21D;64298;46.050;38.164;2023-02-12T12:16:49;2.83;75.99
75685;HTU21D;64298;46.050;38.164;2023-02-12T12:19:45;2.79;76.19
75685;HTU21D;64298;46.050;38.164;2023-02-12T12:25:18;2.70;76.63
75685;HTU21D;64298;46.050;38.164;2023-02-12T12:36:54;2.56;77.64
75685;HTU21D;64298;46.050;38.164;2023-02-12T12:39:42;2.53;77.85
75685;HTU21D;64298;46.050;38.164;2023-02-12T12:45:31;2.43;78.82
75685;HTU21D;64298;46.050;38.164;2023-02-12T12:59:18;2.25;80.65
75685;HTU21D;64298;46.050;38.164;2023-02-12T13:10:23;2.07;82.13
75685;HTU21D;64298;46.050;38.164;2023-02-12T13:18:30;1.93;82.94
75685;HTU21D;64298;46.050;38.164;2023-02-12T13:21:09;1.86;83.06
75685;HTU21D;64298;46.050;38.164;2023-02-12T13:23:58;1.80;83.39
75685;HTU21D;64298;46.050;38.164;2023-02-12T13:26:35;1.75;83.76
75685;HTU21D;64298;46.050;38.164;2023-02-12T13:31:54;1.73;83.87
75685;HTU21D;64298;46.050;38.164;2023-02-12T13:34:23;1.71;83.91
75685;HTU21D;64298;46.050;38.164;2023-02-12T13:36:54;1.71;84.03
75685;HTU21D;64298;46.050;38.164;2023-02-12T13:59:03;1.64;84.20
75685;HTU21D;64298;46.050;38.164;2023-02-12T14:04:21;1.58;84.12
75685;HTU21D;64298;46.050;38.164;2023-02-12T14:07:13;1.52;84.48
75685;HTU21D;64298;46.050;38.164;2023-02-12T14:09:46;1.47;84.59
75685;HTU21D;64298;46.050;38.164;2023-02-12T14:17:48;1.35;85.00
75685;HTU21D;64298;46.050;38.164;2023-02-12T14:20:30;1.32;85.07
75685;HTU21D;64298;46.050;38.164;2023-02-12T14:22:58;1.31;85.06
75685;HTU21D;64298;46.050;38.164;2023-02-12T14:27:57;1.26;85.03
75685;HTU21D;64298;46.050;38.164;2023-02-12T14:30:39;1.24;85.11
75685;HTU21D;64298;46.050;38.164;2023-02-12T14:40:37;1.29;84.86
75685;HTU21D;64298;46.050;38.164;2023-02-12T14:43:34;1.31;84.64
75685;HTU21D;64298;46.050;38.164;2023-02-12T14:48:50;1.31;84.57
75685;HTU21D;64298;46.050;38.164;2023-02-12T14:51:40;1.28;84.63
75685;HTU21D;64298;46.050;38.164;2023-02-12T14:54:24;1.29;84.55
75685;HTU21D;64298;46.050;38.164;2023-02-12T14:56:52;1.31;84.51
75685;HTU21D;64298;46.050;38.164;2023-02-12T14:59:20;1.33;84.48
75685;HTU21D;64298;46.050;38.164;2023-02-12T15:01:49;1.29;84.55
75685;HTU21D;64298;46.050;38.164;2023-02-12T15:04:25;1.31;84.56
75685;HTU21D;64298;46.050;38.164;2023-02-12T15:07:13;1.25;84.56
75685;HTU21D;64298;46.050;38.164;2023-02-12T15:10:03;1.24;84.74
75685;HTU21D;64298;46.050;38.164;2023-02-12T15:12:38;1.24;84.55
75685;HTU21D;64298;46.050;38.164;2023-02-12T15:15:22;1.25;84.59
75685;HTU21D;64298;46.050;38.164;2023-02-12T15:18:02;1.27;84.59
75685;HTU21D;64298;46.050;38.164;2023-02-12T15:23:38;1.31;84.53
75685;HTU21D;64298;46.050;38.164;2023-02-12T15:26:09;1.32;84.53
75685;HTU21D;64298;46.050;38.164;2023-02-12T15:28:38;1.33;84.45
75685;HTU21D;64298;46.050;38.164;2023-02-12T15:31:06;1.36;84.57
75685;HTU21D;64298;46.050;38.164;2023-02-12T15:33:40;1.36;84.51
75685;HTU21D;64298;46.050;38.164;2023-02-12T15:36:10;1.37;84.48
75685;HTU21D;64298;46.050;38.164;2023-02-12T15:38:40;1.37;84.55
75685;HTU21D;64298;46.050;38.164;2023-02-12T15:41:07;1.36;84.54
75685;HTU21D;64298;46.050;38.164;2023-02-12T15:43:39;1.37;84.58
75685;HTU21D;64298;46.050;38.164;2023-02-12T15:46:12;1.37;84.52
75685;HTU21D;64298;46.050;38.164;2023-02-12T15:48:39;1.38;84.57
75685;HTU21D;64298;46.050;38.164;2023-02-12T15:51:13;1.34;84.56
75685;HTU21D;64298;46.050;38.164;2023-02-12T15:53:40;1.32;84.61
75685;HTU21D;64298;46.050;38.164;2023-02-12T15:56:12;1.33;84.67
75685;HTU21D;64298;46.050;38.164;2023-02-12T16:01:15;1.32;84.61
75685;HTU21D;64298;46.050;38.164;2023-02-12T16:03:42;1.28;84.54
75685;HTU21D;64298;46.050;38.164;2023-02-12T16:06:09;1.27;84.64
75685;HTU21D;64298;46.050;38.164;2023-02-12T16:08:40;1.24;84.76
75685;HTU21D;64298;46.050;38.164;2023-02-12T16:11:08;1.22;84.74
75685;HTU21D;64298;46.050;38.164;2023-02-12T16:13:57;1.22;84.55
75685;HTU21D;64298;46.050;38.164;2023-02-12T16:16:30;1.18;84.52
75685;HTU21D;64298;46.050;38.164;2023-02-12T16:19:05;1.18;84.48
75685;HTU21D;64298;46.050;38.164;2023-02-12T16:21:34;1.16;84.32
75685;HTU21D;64298;46.050;38.164;2023-02-12T16:24:00;1.13;84.01
75685;HTU21D;64298;46.050;38.164;2023-02-12T16:26:27;1.11;83.64
75685;HTU21D;64298;46.050;38.164;2023-02-12T16:28:55;1.09;83.26
75685;HTU21D;64298;46.050;38.164;2023-02-12T16:31:25;1.03;82.73
75685;HTU21D;64298;46.050;38.164;2023-02-12T16:33:55;1.04;82.04
75685;HTU21D;64298;46.050;38.164;2023-02-12T16:38:59;1.03;81.48
75685;HTU21D;64298;46.050;38.164;2023-02-12T16:41:29;1.02;80.88
75685;HTU21D;64298;46.050;38.164;2023-02-12T16:46:29;0.99;79.98
75685;HTU21D;64298;46.050;38.164;2023-02-12T16:48:57;0.98;79.49
75685;HTU21D;64298;46.050;38.164;2023-02-12T16:51:31;0.99;79.36
75685;HTU21D;64298;46.050;38.164;2023-02-12T16:53:59;0.99;79.06
75685;HTU21D;64298;46.050;38.164;2023-02-12T16:56:26;0.98;78.95
75685;HTU21D;64298;46.050;38.164;2023-02-12T16:58:56;0.94;78.88
75685;HTU21D;64298;46.050;38.164;2023-02-12T17:01:30;0.90;78.80
75685;HTU21D;64298;46.050;38.164;2023-02-12T17:04:00;0.89;78.70
75685;HTU21D;64298;46.050;38.164;2023-02-12T17:06:27;0.90;78.43
75685;HTU21D;64298;46.050;38.164;2023-02-12T17:08:54;0.87;78.26
75685;HTU21D;64298;46.050;38.164;2023-02-12T17:11:20;0.84;78.27
75685;HTU21D;64298;46.050;38.164;2023-02-12T17:14:10;0.81;78.24
75685;HTU21D;64298;46.050;38.164;2023-02-12T17:16:38;0.78;78.12
75685;HTU21D;64298;46.050;38.164;2023-02-12T17:19:04;0.77;77.74
75685;HTU21D;64298;46.050;38.164;2023-02-12T17:21:35;0.75;77.89
75685;HTU21D;64298;46.050;38.164;2023-02-12T17:24:26;0.73;77.83
75685;HTU21D;64298;46.050;38.164;2023-02-12T17:27:11;0.71;77.69
75685;HTU21D;64298;46.050;38.164;2023-02-12T17:29:38;0.67;77.87
75685;HTU21D;64298;46.050;38.164;2023-02-12T17:32:04;0.65;77.70
75685;HTU21D;64298;46.050;38.164;2023-02-12T17:34:30;0.65;76.90
75685;HTU21D;64298;46.050;38.164;2023-02-12T17:36:56;0.67;76.81
75685;HTU21D;64298;46.050;38.164;2023-02-12T17:39:22;0.67;76.77
75685;HTU21D;64298;46.050;38.164;2023-02-12T17:41:48;0.65;76.90
75685;HTU21D;64298;46.050;38.164;2023-02-12T17:44:15;0.63;76.71
75685;HTU21D;64298;46.050;38.164;2023-02-12T17:46:42;0.63;76.74
75685;HTU21D;64298;46.050;38.164;2023-02-12T17:49:08;0.62;77.20
75685;HTU21D;64298;46.050;38.164;2023-02-12T17:51:34;0.61;77.69
75685;HTU21D;64298;46.050;38.164;2023-02-12T17:54:00;0.59;77.88
75685;HTU21D;64298;46.050;38.164;2023-02-12T17:56:26;0.57;77.80
75685;HTU21D;64298;46.050;38.164;2023-02-12T17:58:52;0.55;77.52
75685;HTU21D;64298;46.050;38.164;2023-02-12T18:01:20;0.54;77.58
75685;HTU21D;64298;46.050;38.164;2023-02-12T18:04:05;0.52;77.85
75685;HTU21D;64298;46.050;38.164;2023-02-12T18:06:31;0.50;77.88
75685;HTU21D;64298;46.050;38.164;2023-02-12T18:08:58;0.50;77.81
75685;HTU21D;64298;46.050;38.164;2023-02-12T18:11:26;0.50;77.72
75685;HTU21D;64298;46.050;38.164;2023-02-12T18:13:55;0.49;77.64
75685;HTU21D;64298;46.050;38.164;2023-02-12T18:16:24;0.50;77.54
75685;HTU21D;64298;46.050;38.164;2023-02-12T18:18:49;0.51;77.51
75685;HTU21D;64298;46.050;38.164;2023-02-12T18:21:16;0.48;77.61
75685;HTU21D;64298;46.050;38.164;2023-02-12T18:23:42;0.45;77.89
75685;HTU21D;64298;46.050;38.164;2023-02-12T18:26:10;0.44;78.01
75685;HTU21D;64298;46.050;38.164;2023-02-12T18:28:37;0.44;77.94
75685;HTU21D;64298;46.050;38.164;2023-02-12T18:31:04;0.45;77.80
75685;HTU21D;64298;46.050;38.164;2023-02-12T18:33:31;0.44;77.61
75685;HTU21D;64298;46.050;38.164;2023-02-12T18:36:04;0.42;77.56